sensor_id;sensor_type;location;lat;lon;timestamp;pressure;altitude;pressure_sealevel;temperature;humidity
73297;BME280;61524;50.938;11.396;2022-08-21T00:01:03;99737.72;;;15.15;93.52
73297;BME280;61524;50.938;11.396;2022-08-21T00:03:32;99742.28;;;15.15;93.46
73297;BME280;61524;50.938;11.396;2022-08-21T00:05:57;99735.78;;;15.11;94.06
73297;BME280;61524;50.938;11.396;2022-08-21T00:08:23;99757.88;;;15.08;93.80
73297;BME280;61524;50.938;11.396;2022-08-21T00:10:49;99754.91;;;15.09;94.05
73297;BME280;61524;50.938;11.396;2022-08-21T00:13:16;99749.25;;;15.11;94.20
73297;BME280;61524;50.938;11.396;2022-08-21T00:15:42;99747.34;;;15.06;94.37
73297;BME280;61524;50.938;11.396;2022-08-21T00:18:10;99750.56;;;15.03;94.46
73297;BME280;61524;50.938;11.396;2022-08-21T00:20:37;99739.22;;;14.96;94.78
73297;BME280;61524;50.938;11.396;2022-08-21T00:23:03;99729.00;;;14.98;94.15
73297;BME280;61524;50.938;11.396;2022-08-21T00:25:29;99737.94;;;15.09;94.89
73297;BME280;61524;50.938;11.396;2022-08-21T00:27:55;99735.13;;;14.93;94.73
73297;BME280;61524;50.938;11.396;2022-08-21T00:30:23;99722.19;;;14.85;94.63
73297;BME280;61524;50.938;11.396;2022-08-21T00:32:49;99726.50;;;14.86;95.00
73297;BME280;61524;50.938;11.396;2022-08-21T00:35:17;99719.22;;;14.87;94.71
73297;BME280;61524;50.938;11.396;2022-08-21T00:37:43;99715.69;;;14.81;94.07
73297;BME280;61524;50.938;11.396;2022-08-21T00:40:13;99710.75;;;14.73;94.13
73297;BME280;61524;50.938;11.396;2022-08-21T00:42:39;99709.09;;;14.67;93.72
73297;BME280;61524;50.938;11.396;2022-08-21T00:45:06;99699.38;;;14.61;94.26
73297;BME280;61524;50.938;11.396;2022-08-21T00:47:31;99708.47;;;14.55;94.97
73297;BME280;61524;50.938;11.396;2022-08-21T00:49:57;99705.56;;;14.61;94.36
73297;BME280;61524;50.938;11.396;2022-08-21T00:52:26;99706.06;;;14.53;94.09
73297;BME280;61524;50.938;11.396;2022-08-21T00:54:54;99695.66;;;14.40;93.86
73297;BME280;61524;50.938;11.396;2022-08-21T00:57:24;99690.41;;;14.23;92.52
73297;BME280;61524;50.938;11.396;2022-08-21T00:59:54;99686.06;;;14.17;93.85
73297;BME280;61524;50.938;11.396;2022-08-21T01:02:21;99691.97;;;14.19;94.49
73297;BME280;61524;50.938;11.396;2022-08-21T01:04:48;99748.53;;;14.29;94.05
73297;BME280;61524;50.938;11.396;2022-08-21T01:07:13;99751.41;;;14.23;94.66
73297;BME280;61524;50.938;11.396;2022-08-21T01:09:39;99789.31;;;14.21;94.78
73297;BME280;61524;50.938;11.396;2022-08-21T01:12:06;99833.28;;;14.15;95.05
73297;BME280;61524;50.938;11.396;2022-08-21T01:14:32;99871.69;;;14.10;94.48
73297;BME280;61524;50.938;11.396;2022-08-21T01:16:59;99903.69;;;14.12;94.28
73297;BME280;61524;50.938;11.396;2022-08-21T01:19:26;99912.97;;;14.04;94.25
73297;BME280;61524;50.938;11.396;2022-08-21T01:21:52;99954.66;;;14.07;95.42
73297;BME280;61524;50.938;11.396;2022-08-21T01:24:19;99960.28;;;14.05;95.85
73297;BME280;61524;50.938;11.396;2022-08-21T01:26:45;100019.25;;;14.12;95.63
73297;BME280;61524;50.938;11.396;2022-08-21T01:31:56;100012.97;;;13.89;94.88
73297;BME280;61524;50.938;11.396;2022-08-21T01:34:22;100062.53;;;13.82;94.97
73297;BME280;61524;50.938;11.396;2022-08-21T01:36:47;100032.75;;;13.83;95.35
73297;BME280;61524;50.938;11.396;2022-08-21T01:39:13;100045.59;;;13.81;95.97
73297;BME280;61524;50.938;11.396;2022-08-21T01:41:39;100030.31;;;13.82;96.18
73297;BME280;61524;50.938;11.396;2022-08-21T01:44:05;100073.53;;;13.80;95.40
73297;BME280;61524;50.938;11.396;2022-08-21T01:46:31;100108.44;;;13.80;95.56
73297;BME280;61524;50.938;11.396;2022-08-21T01:48:57;100105.66;;;13.75;96.09
73297;BME280;61524;50.938;11.396;2022-08-21T01:51:23;100288.81;;;13.72;96.00
73297;BME280;61524;50.938;11.396;2022-08-21T01:53:49;100194.81;;;13.72;96.21
73297;BME280;61524;50.938;11.396;2022-08-21T01:56:15;100187.47;;;13.68;95.31
73297;BME280;61524;50.938;11.396;2022-08-21T01:58:44;100189.13;;;13.57;95.25
73297;BME280;61524;50.938;11.396;2022-08-21T02:01:10;100272.56;;;13.55;95.02
73297;BME280;61524;50.938;11.396;2022-08-21T02:03:36;100235.59;;;13.57;95.04
73297;BME280;61524;50.938;11.396;2022-08-21T02:06:03;100290.34;;;13.56;95.86
73297;BME280;61524;50.938;11.396;2022-08-21T02:08:30;100304.09;;;13.60;95.98
73297;BME280;61524;50.938;11.396;2022-08-21T02:10:56;100260.91;;;13.50;96.06
73297;BME280;61524;50.938;11.396;2022-08-21T02:13:21;100302.72;;;13.46;95.92
73297;BME280;61524;50.938;11.396;2022-08-21T02:15:47;100374.50;;;13.38;95.36
73297;BME280;61524;50.938;11.396;2022-08-21T02:18:12;100341.22;;;13.39;95.27
73297;BME280;61524;50.938;11.396;2022-08-21T02:20:41;100363.06;;;13.43;95.53
73297;BME280;61524;50.938;11.396;2022-08-21T02:23:08;100355.50;;;13.40;95.88
73297;BME280;61524;50.938;11.396;2022-08-21T02:25:34;100358.88;;;13.35;96.28
73297;BME280;61524;50.938;11.396;2022-08-21T02:28:04;100333.16;;;13.28;96.28
73297;BME280;61524;50.938;11.396;2022-08-21T02:30:34;100334.22;;;13.27;95.63
73297;BME280;61524;50.938;11.396;2022-08-21T02:33:00;100426.59;;;13.19;95.65
73297;BME280;61524;50.938;11.396;2022-08-21T02:35:26;100412.00;;;13.15;95.77
73297;BME280;61524;50.938;11.396;2022-08-21T02:37:55;100412.81;;;13.16;95.80
73297;BME280;61524;50.938;11.396;2022-08-21T02:40:24;100452.94;;;13.10;95.38
73297;BME280;61524;50.938;11.396;2022-08-21T02:42:51;100473.88;;;13.02;95.48
73297;BME280;61524;50.938;11.396;2022-08-21T02:45:17;100509.81;;;13.01;95.09
73297;BME280;61524;50.938;11.396;2022-08-21T02:47:49;100515.03;;;12.96;95.28
73297;BME280;61524;50.938;11.396;2022-08-21T02:50:19;100542.19;;;12.87;94.84
73297;BME280;61524;50.938;11.396;2022-08-21T02:52:45;100541.75;;;12.72;94.13
73297;BME280;61524;50.938;11.396;2022-08-21T02:55:10;100562.88;;;12.62;94.36
73297;BME280;61524;50.938;11.396;2022-08-21T02:57:36;100584.94;;;12.64;94.32
73297;BME280;61524;50.938;11.396;2022-08-21T03:00:04;100611.91;;;12.69;94.67
73297;BME280;61524;50.938;11.396;2022-08-21T03:02:30;100608.88;;;12.66;94.54
73297;BME280;61524;50.938;11.396;2022-08-21T03:04:56;100608.91;;;12.59;95.16
73297;BME280;61524;50.938;11.396;2022-08-21T03:07:21;100597.97;;;12.60;95.42
73297;BME280;61524;50.938;11.396;2022-08-21T03:09:47;100658.84;;;12.60;95.21
73297;BME280;61524;50.938;11.396;2022-08-21T03:12:12;100664.19;;;12.60;95.42
73297;BME280;61524;50.938;11.396;2022-08-21T03:14:38;100669.16;;;12.56;95.14
73297;BME280;61524;50.938;11.396;2022-08-21T03:17:04;100695.63;;;12.46;94.96
73297;BME280;61524;50.938;11.396;2022-08-21T03:19:29;100738.81;;;12.38;94.83
73297;BME280;61524;50.938;11.396;2022-08-21T03:21:55;100730.09;;;12.43;94.84
73297;BME280;61524;50.938;11.396;2022-08-21T03:24:20;100744.13;;;12.45;95.81
73297;BME280;61524;50.938;11.396;2022-08-21T03:26:46;100769.47;;;12.42;96.02
73297;BME280;61524;50.938;11.396;2022-08-21T03:29:11;100807.00;;;12.49;96.38
73297;BME280;61524;50.938;11.396;2022-08-21T03:31:37;100822.59;;;12.58;96.54
73297;BME280;61524;50.938;11.396;2022-08-21T03:34:02;100822.22;;;12.55;97.15
73297;BME280;61524;50.938;11.396;2022-08-21T03:36:29;100834.75;;;12.61;97.37
73297;BME280;61524;50.938;11.396;2022-08-21T03:38:54;100843.34;;;12.76;97.60
73297;BME280;61524;50.938;11.396;2022-08-21T03:41:20;100850.63;;;12.94;97.19
73297;BME280;61524;50.938;11.396;2022-08-21T03:43:45;100884.81;;;13.05;97.11
73297;BME280;61524;50.938;11.396;2022-08-21T03:46:11;100925.06;;;13.05;96.47
73297;BME280;61524;50.938;11.396;2022-08-21T03:48:37;100859.44;;;13.01;96.41
73297;BME280;61524;50.938;11.396;2022-08-21T03:51:02;100882.22;;;12.92;96.61
73297;BME280;61524;50.938;11.396;2022-08-21T03:53:28;100895.84;;;12.91;95.93
73297;BME280;61524;50.938;11.396;2022-08-21T03:55:55;100903.06;;;12.90;96.66
73297;BME280;61524;50.938;11.396;2022-08-21T03:58:23;100932.38;;;12.92;95.69
73297;BME280;61524;50.938;11.396;2022-08-21T04:00:52;100923.72;;;12.90;96.26
73297;BME280;61524;50.938;11.396;2022-08-21T04:03:19;100960.88;;;12.86;97.10
73297;BME280;61524;50.938;11.396;2022-08-21T04:05:45;100950.81;;;12.75;97.13
73297;BME280;61524;50.938;11.396;2022-08-21T04:08:11;100973.09;;;12.82;96.64
73297;BME280;61524;50.938;11.396;2022-08-21T04:10:38;100973.28;;;12.80;96.50
73297;BME280;61524;50.938;11.396;2022-08-21T04:13:04;100999.06;;;12.88;96.94
73297;BME280;61524;50.938;11.396;2022-08-21T04:15:30;101007.50;;;12.92;96.95
73297;BME280;61524;50.938;11.396;2022-08-21T04:17:56;101020.28;;;12.90;97.05
73297;BME280;61524;50.938;11.396;2022-08-21T04:20:21;101049.22;;;12.87;96.13
73297;BME280;61524;50.938;11.396;2022-08-21T04:22:48;101057.25;;;12.87;96.87
73297;BME280;61524;50.938;11.396;2022-08-21T04:25:14;101074.38;;;12.86;96.47
73297;BME280;61524;50.938;11.396;2022-08-21T04:27:40;101084.94;;;12.81;96.53
73297;BME280;61524;50.938;11.396;2022-08-21T04:30:07;101069.47;;;12.77;96.29
73297;BME280;61524;50.938;11.396;2022-08-21T04:32:34;101066.78;;;12.77;96.28
73297;BME280;61524;50.938;11.396;2022-08-21T04:35:04;101046.16;;;12.77;95.96
73297;BME280;61524;50.938;11.396;2022-08-21T04:37:31;101039.09;;;12.83;95.96
73297;BME280;61524;50.938;11.396;2022-08-21T04:39:56;101037.50;;;12.69;96.55
73297;BME280;61524;50.938;11.396;2022-08-21T04:42:26;101081.84;;;12.71;96.38
73297;BME280;61524;50.938;11.396;2022-08-21T04:44:53;101093.19;;;12.73;96.47
73297;BME280;61524;50.938;11.396;2022-08-21T04:47:20;101078.53;;;12.69;96.24
73297;BME280;61524;50.938;11.396;2022-08-21T04:49:46;101071.97;;;12.65;96.05
73297;BME280;61524;50.938;11.396;2022-08-21T04:52:13;101095.47;;;12.63;96.42
73297;BME280;61524;50.938;11.396;2022-08-21T04:54:42;101122.28;;;12.63;96.42
73297;BME280;61524;50.938;11.396;2022-08-21T04:57:10;101061.25;;;12.65;96.81
73297;BME280;61524;50.938;11.396;2022-08-21T04:59:46;101066.59;;;12.72;96.04
73297;BME280;61524;50.938;11.396;2022-08-21T05:02:13;101072.56;;;12.74;96.41
73297;BME280;61524;50.938;11.396;2022-08-21T05:04:45;101058.94;;;12.75;96.21
73297;BME280;61524;50.938;11.396;2022-08-21T05:07:12;101075.44;;;12.72;96.00
73297;BME280;61524;50.938;11.396;2022-08-21T05:09:39;101056.69;;;12.72;95.95
73297;BME280;61524;50.938;11.396;2022-08-21T05:12:04;101085.16;;;12.73;95.85
73297;BME280;61524;50.938;11.396;2022-08-21T05:14:30;101090.09;;;12.76;95.97
73297;BME280;61524;50.938;11.396;2022-08-21T05:16:56;101114.44;;;12.81;96.07
73297;BME280;61524;50.938;11.396;2022-08-21T05:19:21;101149.06;;;12.90;95.88
73297;BME280;61524;50.938;11.396;2022-08-21T05:21:47;101043.63;;;12.89;95.08
73297;BME280;61524;50.938;11.396;2022-08-21T05:24:13;100968.09;;;12.92;95.57
73297;BME280;61524;50.938;11.396;2022-08-21T05:26:39;100948.44;;;12.98;95.85
73297;BME280;61524;50.938;11.396;2022-08-21T05:29:04;100911.75;;;12.92;95.65
73297;BME280;61524;50.938;11.396;2022-08-21T05:31:30;101005.84;;;12.97;95.67
73297;BME280;61524;50.938;11.396;2022-08-21T05:33:55;101033.41;;;13.11;95.64
73297;BME280;61524;50.938;11.396;2022-08-21T05:36:21;101074.91;;;13.15;95.70
73297;BME280;61524;50.938;11.396;2022-08-21T05:38:47;101106.88;;;13.30;95.84
73297;BME280;61524;50.938;11.396;2022-08-21T05:41:13;101134.91;;;13.41;96.39
73297;BME280;61524;50.938;11.396;2022-08-21T05:43:38;101137.34;;;13.49;96.26
73297;BME280;61524;50.938;11.396;2022-08-21T05:46:05;101148.63;;;13.64;96.18
73297;BME280;61524;50.938;11.396;2022-08-21T05:48:31;101379.00;;;13.75;96.23
73297;BME280;61524;50.938;11.396;2022-08-21T05:50:57;101130.91;;;13.95;96.08
73297;BME280;61524;50.938;11.396;2022-08-21T05:53:24;101127.78;;;14.23;95.56
73297;BME280;61524;50.938;11.396;2022-08-21T05:55:50;101131.91;;;14.25;96.41
73297;BME280;61524;50.938;11.396;2022-08-21T05:58:19;101111.69;;;14.48;95.36
73297;BME280;61524;50.938;11.396;2022-08-21T06:00:47;101119.72;;;14.73;94.79
73297;BME280;61524;50.938;11.396;2022-08-21T06:03:21;101117.09;;;14.84;94.48
73297;BME280;61524;50.938;11.396;2022-08-21T06:05:47;101125.88;;;14.98;94.49
73297;BME280;61524;50.938;11.396;2022-08-21T06:08:14;101130.56;;;15.21;93.32
73297;BME280;61524;50.938;11.396;2022-08-21T06:10:40;101118.16;;;15.20;93.34
73297;BME280;61524;50.938;11.396;2022-08-21T06:13:05;101112.72;;;15.38;93.20
73297;BME280;61524;50.938;11.396;2022-08-21T06:15:31;101134.47;;;15.73;91.79
73297;BME280;61524;50.938;11.396;2022-08-21T06:17:56;101140.63;;;15.92;91.33
73297;BME280;61524;50.938;11.396;2022-08-21T06:20:22;101133.88;;;16.01;90.80
73297;BME280;61524;50.938;11.396;2022-08-21T06:22:48;101145.28;;;16.27;89.50
73297;BME280;61524;50.938;11.396;2022-08-21T06:25:13;101125.22;;;16.23;89.58
73297;BME280;61524;50.938;11.396;2022-08-21T06:27:39;101126.66;;;16.37;90.09
73297;BME280;61524;50.938;11.396;2022-08-21T06:30:06;101145.31;;;16.50;89.04
73297;BME280;61524;50.938;11.396;2022-08-21T06:32:31;101165.66;;;16.76;88.29
73297;BME280;61524;50.938;11.396;2022-08-21T06:34:57;101136.88;;;16.70;89.98
73297;BME280;61524;50.938;11.396;2022-08-21T06:37:22;101120.94;;;16.69;88.86
73297;BME280;61524;50.938;11.396;2022-08-21T06:39:48;101121.75;;;16.81;88.88
73297;BME280;61524;50.938;11.396;2022-08-21T06:42:17;101132.38;;;17.11;88.20
73297;BME280;61524;50.938;11.396;2022-08-21T06:44:43;101186.41;;;17.63;86.84
73297;BME280;61524;50.938;11.396;2022-08-21T06:47:09;100918.22;;;17.61;85.87
73297;BME280;61524;50.938;11.396;2022-08-21T06:49:35;100946.47;;;17.53;86.17
73297;BME280;61524;50.938;11.396;2022-08-21T06:52:01;100871.69;;;17.59;86.92
73297;BME280;61524;50.938;11.396;2022-08-21T06:54:27;100879.53;;;17.94;86.22
73297;BME280;61524;50.938;11.396;2022-08-21T06:56:52;100823.16;;;18.08;85.88
73297;BME280;61524;50.938;11.396;2022-08-21T06:59:18;100820.16;;;18.04;85.87
73297;BME280;61524;50.938;11.396;2022-08-21T07:01:44;100848.44;;;18.41;84.55
73297;BME280;61524;50.938;11.396;2022-08-21T07:04:10;100850.94;;;18.47;84.84
73297;BME280;61524;50.938;11.396;2022-08-21T07:06:36;101289.88;;;18.68;83.50
73297;BME280;61524;50.938;11.396;2022-08-21T07:09:02;101035.94;;;19.19;82.07
73297;BME280;61524;50.938;11.396;2022-08-21T07:11:28;101280.91;;;19.34;81.60
73297;BME280;61524;50.938;11.396;2022-08-21T07:13:53;100979.19;;;19.07;81.98
73297;BME280;61524;50.938;11.396;2022-08-21T07:16:21;100626.81;;;18.81;82.57
73297;BME280;61524;50.938;11.396;2022-08-21T07:18:47;101200.72;;;18.66;83.24
73297;BME280;61524;50.938;11.396;2022-08-21T07:21:13;100995.16;;;19.08;81.67
73297;BME280;61524;50.938;11.396;2022-08-21T07:23:42;100969.00;;;19.19;80.64
73297;BME280;61524;50.938;11.396;2022-08-21T07:26:10;100908.94;;;19.00;81.19
73297;BME280;61524;50.938;11.396;2022-08-21T07:28:36;100850.47;;;19.09;79.26
73297;BME280;61524;50.938;11.396;2022-08-21T07:31:02;100804.09;;;18.69;81.37
73297;BME280;61524;50.938;11.396;2022-08-21T07:33:30;100774.28;;;18.42;79.95
73297;BME280;61524;50.938;11.396;2022-08-21T07:35:57;100772.91;;;18.39;81.10
73297;BME280;61524;50.938;11.396;2022-08-21T07:38:23;100769.16;;;18.72;78.26
73297;BME280;61524;50.938;11.396;2022-08-21T07:40:51;100778.19;;;18.56;77.44
73297;BME280;61524;50.938;11.396;2022-08-21T07:43:17;100767.59;;;18.49;79.14
73297;BME280;61524;50.938;11.396;2022-08-21T07:45:44;100754.97;;;18.60;78.30
73297;BME280;61524;50.938;11.396;2022-08-21T07:48:09;100733.88;;;18.62;74.22
73297;BME280;61524;50.938;11.396;2022-08-21T07:50:35;100735.59;;;18.68;73.00
73297;BME280;61524;50.938;11.396;2022-08-21T07:53:00;100739.00;;;18.91;72.98
73297;BME280;61524;50.938;11.396;2022-08-21T07:55:26;100719.94;;;19.18;73.09
73297;BME280;61524;50.938;11.396;2022-08-21T07:57:51;100692.78;;;19.07;71.96
73297;BME280;61524;50.938;11.396;2022-08-21T08:00:20;100662.44;;;19.05;72.24
73297;BME280;61524;50.938;11.396;2022-08-21T08:02:48;100631.06;;;19.20;71.23
73297;BME280;61524;50.938;11.396;2022-08-21T08:05:19;100532.41;;;19.21;69.84
73297;BME280;61524;50.938;11.396;2022-08-21T08:07:45;100483.75;;;19.66;68.09
73297;BME280;61524;50.938;11.396;2022-08-21T08:10:11;100488.34;;;19.86;67.24
73297;BME280;61524;50.938;11.396;2022-08-21T08:12:38;100484.53;;;19.82;67.37
73297;BME280;61524;50.938;11.396;2022-08-21T08:15:07;100468.81;;;19.84;68.61
73297;BME280;61524;50.938;11.396;2022-08-21T08:17:32;100481.00;;;19.97;66.93
73297;BME280;61524;50.938;11.396;2022-08-21T08:19:58;100406.69;;;19.93;66.62
73297;BME280;61524;50.938;11.396;2022-08-21T08:22:26;100306.06;;;19.84;66.00
73297;BME280;61524;50.938;11.396;2022-08-21T08:24:52;100307.94;;;19.89;65.86
73297;BME280;61524;50.938;11.396;2022-08-21T08:27:18;100281.38;;;19.91;66.43
73297;BME280;61524;50.938;11.396;2022-08-21T08:29:44;100262.88;;;19.98;65.95
73297;BME280;61524;50.938;11.396;2022-08-21T08:32:09;100293.81;;;19.97;67.43
73297;BME280;61524;50.938;11.396;2022-08-21T08:34:36;100317.94;;;20.04;66.21
73297;BME280;61524;50.938;11.396;2022-08-21T08:37:03;100274.41;;;20.24;65.50
73297;BME280;61524;50.938;11.396;2022-08-21T08:39:30;100476.31;;;20.33;64.80
73297;BME280;61524;50.938;11.396;2022-08-21T08:44:33;100361.38;;;20.63;63.87
73297;BME280;61524;50.938;11.396;2022-08-21T08:47:00;100273.22;;;20.85;64.06
73297;BME280;61524;50.938;11.396;2022-08-21T08:52:20;100181.38;;;21.11;63.03
73297;BME280;61524;50.938;11.396;2022-08-21T08:54:49;100175.09;;;21.15;63.30
73297;BME280;61524;50.938;11.396;2022-08-21T08:57:20;100151.00;;;21.33;62.02
73297;BME280;61524;50.938;11.396;2022-08-21T08:59:50;100128.50;;;20.98;62.21
73297;BME280;61524;50.938;11.396;2022-08-21T09:02:16;100132.94;;;20.94;62.04
73297;BME280;61524;50.938;11.396;2022-08-21T09:04:44;100170.16;;;21.84;61.18
73297;BME280;61524;50.938;11.396;2022-08-21T09:07:25;100180.97;;;22.13;58.34
73297;BME280;61524;50.938;11.396;2022-08-21T09:20:44;100120.88;;;22.05;59.98
73297;BME280;61524;50.938;11.396;2022-08-21T09:28:38;100103.97;;;21.51;59.90
73297;BME280;61524;50.938;11.396;2022-08-21T09:31:30;100107.53;;;21.70;59.92
73297;BME280;61524;50.938;11.396;2022-08-21T09:34:06;100106.78;;;21.65;60.05
73297;BME280;61524;50.938;11.396;2022-08-21T09:36:44;100085.03;;;21.22;61.25
73297;BME280;61524;50.938;11.396;2022-08-21T09:39:22;100073.16;;;20.94;61.69
73297;BME280;61524;50.938;11.396;2022-08-21T09:41:56;100090.38;;;21.32;60.59
73297;BME280;61524;50.938;11.396;2022-08-21T09:44:29;100103.91;;;21.56;60.31
73297;BME280;61524;50.938;11.396;2022-08-21T09:46:55;100129.72;;;21.96;60.67
73297;BME280;61524;50.938;11.396;2022-08-21T09:49:35;100121.69;;;22.05;58.29
73297;BME280;61524;50.938;11.396;2022-08-21T09:52:04;100157.84;;;22.62;57.08
73297;BME280;61524;50.938;11.396;2022-08-21T09:54:35;100130.38;;;22.59;57.20
73297;BME280;61524;50.938;11.396;2022-08-21T09:59:52;100734.13;;;23.18;55.60
73297;BME280;61524;50.938;11.396;2022-08-21T10:02:33;100635.59;;;23.48;57.23
73297;BME280;61524;50.938;11.396;2022-08-21T10:05:23;100576.81;;;22.65;55.94
73297;BME280;61524;50.938;11.396;2022-08-21T10:07:49;100572.84;;;23.67;54.88
73297;BME280;61524;50.938;11.396;2022-08-21T10:10:18;100519.34;;;23.85;53.65
73297;BME280;61524;50.938;11.396;2022-08-21T10:13:13;100421.41;;;24.52;52.87
73297;BME280;61524;50.938;11.396;2022-08-21T10:28:40;100112.03;;;22.78;56.87
73297;BME280;61524;50.938;11.396;2022-08-21T10:33:50;100078.41;;;22.55;56.94
73297;BME280;61524;50.938;11.396;2022-08-21T10:36:30;100069.66;;;22.25;57.77
73297;BME280;61524;50.938;11.396;2022-08-21T10:39:33;100078.88;;;22.30;57.91
73297;BME280;61524;50.938;11.396;2022-08-21T10:45:07;100061.69;;;22.15;57.47
73297;BME280;61524;50.938;11.396;2022-08-21T10:47:36;100045.97;;;22.12;57.44
73297;BME280;61524;50.938;11.396;2022-08-21T10:50:11;100039.16;;;22.84;55.71
73297;BME280;61524;50.938;11.396;2022-08-21T10:55:26;100388.09;;;22.97;55.76
73297;BME280;61524;50.938;11.396;2022-08-21T10:58:09;100236.16;;;22.70;54.59
73297;BME280;61524;50.938;11.396;2022-08-21T11:00:49;100056.75;;;23.05;55.03
73297;BME280;61524;50.938;11.396;2022-08-21T11:03:32;100049.75;;;23.26;53.84
73297;BME280;61524;50.938;11.396;2022-08-21T11:08:43;100067.66;;;23.55;53.25
73297;BME280;61524;50.938;11.396;2022-08-21T11:11:19;100076.78;;;24.09;51.65
73297;BME280;61524;50.938;11.396;2022-08-21T11:13:59;100081.41;;;24.53;49.90
73297;BME280;61524;50.938;11.396;2022-08-21T11:16:42;100064.31;;;24.17;50.55
73297;BME280;61524;50.938;11.396;2022-08-21T11:19:31;100074.88;;;24.63;50.63
73297;BME280;61524;50.938;11.396;2022-08-21T11:22:06;100083.84;;;24.95;49.91
73297;BME280;61524;50.938;11.396;2022-08-21T11:25:11;100068.13;;;24.60;49.70
73297;BME280;61524;50.938;11.396;2022-08-21T11:28:02;100008.56;;;23.64;52.53
73297;BME280;61524;50.938;11.396;2022-08-21T11:39:20;99972.25;;;23.05;53.79
73297;BME280;61524;50.938;11.396;2022-08-21T11:42:13;99958.31;;;22.65;55.30
73297;BME280;61524;50.938;11.396;2022-08-21T11:50:20;99979.91;;;22.75;54.82
73297;BME280;61524;50.938;11.396;2022-08-21T11:52:56;99980.63;;;23.09;53.98
73297;BME280;61524;50.938;11.396;2022-08-21T11:55:36;99976.47;;;23.11;53.46
73297;BME280;61524;50.938;11.396;2022-08-21T11:58:14;99962.16;;;23.05;53.17
73297;BME280;61524;50.938;11.396;2022-08-21T12:00:42;99948.03;;;22.90;52.86
73297;BME280;61524;50.938;11.396;2022-08-21T12:03:16;99954.91;;;23.46;52.50
73297;BME280;61524;50.938;11.396;2022-08-21T12:05:46;99960.34;;;23.37;52.18
73297;BME280;61524;50.938;11.396;2022-08-21T12:08:35;99926.53;;;22.74;53.30
73297;BME280;61524;50.938;11.396;2022-08-21T12:11:22;99944.28;;;22.99;53.49
73297;BME280;61524;50.938;11.396;2022-08-21T12:14:15;99948.75;;;23.31;52.65
73297;BME280;61524;50.938;11.396;2022-08-21T12:16:43;99935.34;;;23.44;51.18
73297;BME280;61524;50.938;11.396;2022-08-21T12:19:27;99962.66;;;23.66;49.04
73297;BME280;61524;50.938;11.396;2022-08-21T12:29:59;99959.31;;;24.31;48.03
73297;BME280;61524;50.938;11.396;2022-08-21T12:32:41;99954.91;;;24.44;47.99
73297;BME280;61524;50.938;11.396;2022-08-21T12:35:15;99935.31;;;24.20;48.29
73297;BME280;61524;50.938;11.396;2022-08-21T12:37:50;99932.72;;;23.83;49.67
73297;BME280;61524;50.938;11.396;2022-08-21T12:40:29;99939.84;;;24.24;49.08
73297;BME280;61524;50.938;11.396;2022-08-21T12:42:59;99918.47;;;23.87;49.67
73297;BME280;61524;50.938;11.396;2022-08-21T12:45:37;99897.25;;;23.61;49.50
73297;BME280;61524;50.938;11.396;2022-08-21T12:48:26;99877.94;;;23.49;50.26
73297;BME280;61524;50.938;11.396;2022-08-21T12:50:57;99875.59;;;23.34;50.72
73297;BME280;61524;50.938;11.396;2022-08-21T12:53:47;99887.47;;;23.60;49.84
73297;BME280;61524;50.938;11.396;2022-08-21T12:56:16;99889.69;;;23.80;48.73
73297;BME280;61524;50.938;11.396;2022-08-21T12:58:53;99889.84;;;23.75;48.80
73297;BME280;61524;50.938;11.396;2022-08-21T13:03:55;99875.38;;;23.75;47.92
73297;BME280;61524;50.938;11.396;2022-08-21T13:06:23;99885.97;;;24.07;47.88
73297;BME280;61524;50.938;11.396;2022-08-21T13:08:55;99891.53;;;24.33;47.45
73297;BME280;61524;50.938;11.396;2022-08-21T13:11:23;99876.25;;;24.32;44.79
73297;BME280;61524;50.938;11.396;2022-08-21T13:13:50;99875.97;;;24.43;44.78
73297;BME280;61524;50.938;11.396;2022-08-21T13:16:24;99884.50;;;24.58;44.11
73297;BME280;61524;50.938;11.396;2022-08-21T13:18:58;99871.97;;;24.49;44.81
73297;BME280;61524;50.938;11.396;2022-08-21T13:21:48;99875.22;;;24.59;44.46
73297;BME280;61524;50.938;11.396;2022-08-21T13:26:39;99887.44;;;24.79;44.62
73297;BME280;61524;50.938;11.396;2022-08-21T13:29:11;99873.78;;;24.71;45.17
73297;BME280;61524;50.938;11.396;2022-08-21T13:31:38;99865.88;;;24.60;45.61
73297;BME280;61524;50.938;11.396;2022-08-21T13:34:08;99859.56;;;24.43;46.45
73297;BME280;61524;50.938;11.396;2022-08-21T13:36:37;99856.44;;;24.18;46.46
73297;BME280;61524;50.938;11.396;2022-08-21T13:39:07;99859.91;;;24.41;46.33
73297;BME280;61524;50.938;11.396;2022-08-21T13:41:38;99859.34;;;24.30;46.23
73297;BME280;61524;50.938;11.396;2022-08-21T13:44:31;99841.47;;;24.16;46.56
73297;BME280;61524;50.938;11.396;2022-08-21T13:46:59;99823.41;;;23.80;47.11
73297;BME280;61524;50.938;11.396;2022-08-21T13:49:30;99799.16;;;23.56;48.62
73297;BME280;61524;50.938;11.396;2022-08-21T13:51:56;99805.34;;;23.39;48.56
73297;BME280;61524;50.938;11.396;2022-08-21T13:54:29;99818.69;;;23.72;48.16
73297;BME280;61524;50.938;11.396;2022-08-21T13:56:58;99819.19;;;23.74;47.71
73297;BME280;61524;50.938;11.396;2022-08-21T13:59:35;99810.88;;;23.88;48.15
73297;BME280;61524;50.938;11.396;2022-08-21T14:02:18;99814.25;;;23.85;48.06
73297;BME280;61524;50.938;11.396;2022-08-21T14:04:54;99817.03;;;24.02;47.78
73297;BME280;61524;50.938;11.396;2022-08-21T14:07:34;99821.22;;;24.08;47.31
73297;BME280;61524;50.938;11.396;2022-08-21T14:10:25;100364.94;;;23.93;47.32
73297;BME280;61524;50.938;11.396;2022-08-21T14:13:02;100243.69;;;24.07;46.65